Time;durP1;ratioP1;P1;durP2;ratioP2;P2;SDS_P1;SDS_P2;PMS_P1;PMS_P2;Temp;Humidity;BMP_temperature;BMP_pressure;BME280_temperature;BME280_humidity;BME280_pressure;Samples;Min_cycle;Max_cycle;Signal;HPM_P1;HPM_P2
2021/04/09 00:02:24;;;;;;;11.50;5.82;;;-3.10;99.90;;;;;;5034831;28;20049;-80
2021/04/09 00:04:52;;;;;;;11.35;5.05;;;-3.20;99.90;;;;;;5034790;28;20136;-80
2021/04/09 00:07:18;;;;;;;9.00;4.93;;;-3.30;99.90;;;;;;5034440;28;20487;-80
2021/04/09 00:09:44;;;;;;;15.70;6.60;;;-3.40;99.90;;;;;;5033834;28;20055;-80
2021/04/09 00:12:13;;;;;;;11.32;6.18;;;-3.30;99.90;;;;;;5034651;28;20045;-80
2021/04/09 00:14:39;;;;;;;13.45;6.40;;;-3.30;99.90;;;;;;5034515;28;20133;-81
2021/04/09 00:17:06;;;;;;;11.45;5.75;;;-3.40;99.90;;;;;;5034865;28;20107;-81
2021/04/09 00:19:33;;;;;;;10.60;5.43;;;-3.40;99.90;;;;;;5036222;28;20049;-81
2021/04/09 00:22:00;;;;;;;8.85;5.43;;;-3.50;99.90;;;;;;5034722;28;20124;-81
2021/04/09 00:24:26;;;;;;;13.15;6.45;;;-3.50;99.90;;;;;;5035591;28;20167;-81
2021/04/09 00:26:54;;;;;;;15.48;7.85;;;-3.50;99.90;;;;;;5034868;28;20113;-81
2021/04/09 00:29:23;;;;;;;13.07;7.15;;;-3.40;99.90;;;;;;5034242;28;20479;-81
2021/04/09 00:31:52;;;;;;;15.35;7.35;;;-3.40;99.90;;;;;;5035447;28;20072;-81
2021/04/09 00:34:19;;;;;;;17.98;7.90;;;-3.30;99.90;;;;;;5033914;28;20565;-81
2021/04/09 00:36:46;;;;;;;14.15;7.60;;;-3.40;99.90;;;;;;5035224;28;20049;-80
2021/04/09 00:39:12;;;;;;;14.85;7.07;;;-3.40;99.90;;;;;;5035507;28;20145;-80
2021/04/09 00:41:39;;;;;;;19.25;8.65;;;-3.50;99.90;;;;;;5033985;28;20103;-80
2021/04/09 00:44:07;;;;;;;13.20;7.68;;;-3.40;99.90;;;;;;5035689;28;20046;-81
2021/04/09 00:46:34;;;;;;;15.05;8.50;;;-3.50;99.90;;;;;;5035558;28;20076;-80
2021/04/09 00:49:03;;;;;;;11.27;6.60;;;-3.50;99.90;;;;;;5034196;28;20041;-81
2021/04/09 00:51:30;;;;;;;13.13;5.38;;;-3.50;99.90;;;;;;5035068;28;20046;-80
2021/04/09 00:53:58;;;;;;;9.30;4.65;;;-3.60;99.90;;;;;;5034426;28;20406;-81
2021/04/09 00:56:28;;;;;;;11.35;5.50;;;-3.60;99.90;;;;;;5034303;28;20045;-80
2021/04/09 00:58:56;;;;;;;12.20;5.80;;;-3.60;99.90;;;;;;5034275;28;20391;-81
2021/04/09 01:01:24;;;;;;;13.07;5.38;;;-3.70;99.90;;;;;;5034185;28;20099;-80
2021/04/09 01:03:54;;;;;;;8.57;5.65;;;-3.70;99.90;;;;;;5033703;28;20068;-80
2021/04/09 01:06:21;;;;;;;8.73;5.68;;;-3.80;99.90;;;;;;5034908;28;20077;-81
2021/04/09 01:08:49;;;;;;;11.90;5.53;;;-3.80;99.90;;;;;;5034253;28;20085;-81
2021/04/09 01:11:16;;;;;;;12.18;5.90;;;-3.90;99.90;;;;;;5033754;28;20491;-81
2021/04/09 01:13:45;;;;;;;14.52;5.80;;;-3.90;99.90;;;;;;5035256;28;20072;-82
2021/04/09 01:16:53;;;;;;;7.97;5.32;;;-4.00;99.90;;;;;;5036078;28;20052;-80
2021/04/09 01:19:51;;;;;;;10.50;5.78;;;-4.00;99.90;;;;;;5066701;28;20095;-80
2021/04/09 01:22:18;;;;;;;13.00;6.25;;;-4.00;99.90;;;;;;5070745;28;20082;-80
2021/04/09 01:25:13;;;;;;;8.80;5.07;;;-4.00;99.90;;;;;;5037554;28;20589;-80
2021/04/09 01:28:04;;;;;;;10.27;5.50;;;-4.00;99.90;;;;;;5038673;28;20053;-80
2021/04/09 01:31:00;;;;;;;9.25;5.25;;;-4.10;99.90;;;;;;5036942;28;20087;-81
2021/04/09 01:33:32;;;;;;;14.73;6.53;;;-4.10;99.90;;;;;;5038827;28;20494;-80
2021/04/09 01:36:07;;;;;;;10.30;6.22;;;-4.20;99.90;;;;;;5037665;28;20080;-81
2021/04/09 01:38:39;;;;;;;11.45;5.65;;;-4.10;99.90;;;;;;5038478;28;20103;-81
2021/04/09 01:41:08;;;;;;;8.18;6.60;;;-4.20;99.90;;;;;;5038278;28;20049;-81
2021/04/09 01:43:36;;;;;;;14.65;6.00;;;-4.20;99.90;;;;;;5037998;28;20073;-82
2021/04/09 01:46:05;;;;;;;10.90;5.93;;;-4.20;99.90;;;;;;5038424;28;20049;-81
2021/04/09 01:48:34;;;;;;;11.85;6.32;;;-4.20;99.90;;;;;;5038670;28;20113;-81
2021/04/09 01:51:02;;;;;;;16.38;6.80;;;-4.20;99.90;;;;;;5038235;28;20079;-81
2021/04/09 01:53:29;;;;;;;15.65;6.28;;;-4.20;99.90;;;;;;5037441;28;20487;-81
2021/04/09 01:55:58;;;;;;;13.35;6.20;;;-4.10;99.90;;;;;;5038182;28;20042;-81
2021/04/09 01:58:27;;;;;;;10.60;5.25;;;-4.10;99.90;;;;;;5037670;28;20050;-81
2021/04/09 02:00:54;;;;;;;10.25;5.47;;;-4.20;99.90;;;;;;5038381;28;20053;-81
2021/04/09 02:03:23;;;;;;;10.43;6.22;;;-4.10;99.90;;;;;;5039042;28;20053;-81
2021/04/09 02:05:53;;;;;;;10.93;5.90;;;-4.10;99.90;;;;;;5038727;28;20456;-81
2021/04/09 02:08:21;;;;;;;11.25;5.75;;;-4.00;99.90;;;;;;5038786;28;20107;-82
2021/04/09 02:10:49;;;;;;;10.25;6.25;;;-4.00;99.90;;;;;;5038402;28;20042;-81
2021/04/09 02:13:16;;;;;;;8.32;5.75;;;-4.00;99.90;;;;;;5038398;28;20049;-81
2021/04/09 02:15:43;;;;;;;13.88;7.55;;;-4.10;99.90;;;;;;5038395;28;20069;-81
2021/04/09 02:18:10;;;;;;;12.48;5.80;;;-4.20;99.90;;;;;;5036904;28;20494;-81
2021/04/09 02:20:37;;;;;;;19.92;6.82;;;-4.20;99.90;;;;;;5037316;28;20132;-81
2021/04/09 02:23:05;;;;;;;12.85;5.88;;;-4.10;99.90;;;;;;5037032;28;20063;-82
2021/04/09 02:25:31;;;;;;;27.10;7.75;;;-4.20;99.90;;;;;;5036734;28;20053;-82
2021/04/09 02:27:58;;;;;;;13.80;6.35;;;-4.10;99.90;;;;;;5038777;28;20073;-82
2021/04/09 02:30:24;;;;;;;15.10;6.50;;;-4.10;99.90;;;;;;5037546;28;20124;-82
2021/04/09 02:32:51;;;;;;;13.77;7.00;;;-4.00;99.90;;;;;;5038182;28;20049;-82
2021/04/09 02:35:18;;;;;;;11.30;6.38;;;-4.00;99.90;;;;;;5038769;28;20046;-82
2021/04/09 02:37:48;;;;;;;13.02;6.20;;;-4.00;99.90;;;;;;5039542;28;20051;-83
2021/04/09 02:40:36;;;;;;;17.88;6.53;;;-4.10;99.90;;;;;;5040378;28;20053;-82
2021/04/09 02:43:02;;;;;;;14.98;6.82;;;-4.10;99.90;;;;;;5039115;28;20061;-82
2021/04/09 02:45:28;;;;;;;17.05;7.05;;;-4.00;99.90;;;;;;5037976;28;20053;-82
2021/04/09 02:48:00;;;;;;;17.55;7.35;;;-4.00;99.90;;;;;;5037661;28;20053;-82
2021/04/09 02:50:32;;;;;;;15.23;7.15;;;-3.90;99.90;;;;;;5038047;28;20521;-82
2021/04/09 02:53:11;;;;;;;14.95;6.15;;;-3.80;99.90;;;;;;5038727;28;20073;-82
2021/04/09 02:55:41;;;;;;;10.65;7.18;;;-3.80;99.90;;;;;;5037488;28;20056;-83
2021/04/09 02:58:09;;;;;;;21.05;10.77;;;-3.90;99.90;;;;;;5038008;28;20049;-83
2021/04/09 03:00:37;;;;;;;15.38;8.90;;;-3.90;99.90;;;;;;5039009;28;20128;-82
2021/04/09 03:03:05;;;;;;;16.52;7.90;;;-3.90;99.90;;;;;;5039247;28;20469;-83
2021/04/09 03:05:32;;;;;;;15.25;7.93;;;-3.90;99.90;;;;;;5040051;28;20050;-82
2021/04/09 03:07:59;;;;;;;12.95;6.60;;;-3.80;99.90;;;;;;5037070;28;20103;-82
2021/04/09 03:10:26;;;;;;;39.33;10.32;;;-3.70;99.90;;;;;;5037992;28;20046;-82
2021/04/09 03:12:52;;;;;;;22.05;7.43;;;-3.70;99.90;;;;;;5038022;28;20140;-82
2021/04/09 03:15:28;;;;;;;14.68;7.10;;;-3.70;99.90;;;;;;5036081;28;20136;-82
2021/04/09 03:18:02;;;;;;;17.15;6.70;;;-3.70;99.90;;;;;;5037529;28;20628;-82
2021/04/09 03:20:28;;;;;;;9.80;6.68;;;-3.80;99.90;;;;;;5037389;28;20487;-82
2021/04/09 03:22:55;;;;;;;13.95;8.00;;;-3.80;99.90;;;;;;5036524;28;20092;-82
2021/04/09 03:25:22;;;;;;;12.52;6.97;;;-3.70;99.90;;;;;;5036199;28;20515;-82
2021/04/09 03:27:52;;;;;;;12.15;6.70;;;-3.70;99.90;;;;;;5036350;28;20053;-82
2021/04/09 03:30:21;;;;;;;14.65;8.13;;;-3.70;99.90;;;;;;5036248;28;20046;-82
2021/04/09 03:32:48;;;;;;;15.10;7.68;;;-3.80;99.90;;;;;;5036585;28;20049;-82
2021/04/09 03:35:15;;;;;;;17.80;8.52;;;-3.80;99.90;;;;;;5036569;28;20464;-82
2021/04/09 03:37:41;;;;;;;18.70;8.75;;;-3.70;99.90;;;;;;5036286;28;20553;-82
2021/04/09 03:40:08;;;;;;;26.73;8.63;;;-3.70;99.90;;;;;;5036674;28;20107;-82
2021/04/09 03:42:35;;;;;;;15.23;9.23;;;-3.80;99.90;;;;;;5035913;28;20085;-82
2021/04/09 03:45:02;;;;;;;15.98;9.43;;;-3.70;99.90;;;;;;5036766;28;20088;-82
2021/04/09 03:47:28;;;;;;;25.05;9.88;;;-3.80;99.90;;;;;;5036329;28;20450;-81
2021/04/09 03:49:55;;;;;;;16.10;9.07;;;-3.80;99.90;;;;;;5037213;28;20092;-82
2021/04/09 03:52:22;;;;;;;15.32;8.82;;;-3.80;99.90;;;;;;5037243;28;20442;-82
2021/04/09 03:54:48;;;;;;;18.95;8.85;;;-3.80;99.90;;;;;;5035608;28;20499;-82
2021/04/09 03:57:15;;;;;;;22.55;10.27;;;-3.80;99.90;;;;;;5035676;28;20056;-82
2021/04/09 03:59:41;;;;;;;22.98;9.10;;;-3.80;99.90;;;;;;5036402;28;20046;-82
2021/04/09 04:02:08;;;;;;;17.45;10.20;;;-3.80;99.90;;;;;;5035701;28;20141;-82
2021/04/09 04:04:34;;;;;;;19.48;9.00;;;-4.00;99.90;;;;;;5035795;28;20487;-83
2021/04/09 04:07:01;;;;;;;23.25;10.43;;;-4.00;99.90;;;;;;5035813;28;20120;-82
2021/04/09 04:09:28;;;;;;;21.77;9.50;;;-3.90;99.90;;;;;;5035940;28;20049;-82
2021/04/09 04:11:54;;;;;;;18.02;10.02;;;-4.00;99.90;;;;;;5035385;28;20046;-82
2021/04/09 04:14:22;;;;;;;34.83;11.25;;;-4.00;99.90;;;;;;5035932;28;20049;-82
2021/04/09 04:16:48;;;;;;;17.90;11.32;;;-3.90;99.90;;;;;;5035853;28;20533;-82
2021/04/09 04:19:17;;;;;;;23.38;11.23;;;-3.80;99.90;;;;;;5036355;28;20132;-83
2021/04/09 04:21:44;;;;;;;28.30;12.00;;;-3.90;99.90;;;;;;5036498;28;20053;-83
2021/04/09 04:24:12;;;;;;;20.58;10.75;;;-3.80;99.90;;;;;;5037663;28;20053;-83
2021/04/09 04:26:38;;;;;;;24.95;11.93;;;-3.70;99.90;;;;;;5039156;28;20514;-83
2021/04/09 04:29:04;;;;;;;31.38;11.32;;;-3.70;99.90;;;;;;5068614;28;20050;-82
2021/04/09 04:31:30;;;;;;;29.23;13.02;;;-3.70;99.90;;;;;;5036749;28;20056;-83
2021/04/09 04:33:57;;;;;;;28.63;12.73;;;-3.50;99.90;;;;;;5035242;28;20045;-83
2021/04/09 04:36:23;;;;;;;41.47;11.88;;;-3.50;99.90;;;;;;5034745;28;20084;-83
2021/04/09 04:38:50;;;;;;;22.45;11.55;;;-3.40;99.90;;;;;;5036935;28;20049;-83
2021/04/09 04:41:17;;;;;;;27.90;12.05;;;-3.40;99.90;;;;;;5036515;28;20049;-83
2021/04/09 04:43:44;;;;;;;25.95;12.27;;;-3.40;99.90;;;;;;5039410;28;20054;-83
2021/04/09 04:46:10;;;;;;;23.02;11.60;;;-3.40;99.90;;;;;;5039597;28;20053;-82
2021/04/09 04:48:37;;;;;;;29.38;12.25;;;-3.30;99.90;;;;;;5039165;28;20131;-83
2021/04/09 04:51:04;;;;;;;28.98;12.00;;;-3.30;99.90;;;;;;5035341;28;20461;-83
2021/04/09 04:53:30;;;;;;;24.17;11.82;;;-3.30;99.90;;;;;;5035169;28;20540;-83
2021/04/09 04:55:57;;;;;;;25.33;14.05;;;-3.20;99.90;;;;;;5039574;28;20049;-83
2021/04/09 04:58:24;;;;;;;26.52;13.98;;;-3.10;99.90;;;;;;5042403;28;20486;-83
2021/04/09 05:00:50;;;;;;;22.40;12.93;;;-3.20;99.90;;;;;;5041815;28;20049;-83
2021/04/09 05:03:17;;;;;;;26.30;12.95;;;-3.00;99.90;;;;;;5042293;28;20407;-83
2021/04/09 05:05:44;;;;;;;25.75;11.75;;;-3.00;99.90;;;;;;5043207;28;20494;-84
2021/04/09 05:08:10;;;;;;;29.58;11.93;;;-2.90;99.90;;;;;;5046430;28;20054;-84
2021/04/09 05:10:37;;;;;;;27.13;11.68;;;-2.80;99.90;;;;;;5046246;28;20132;-84
2021/04/09 05:13:03;;;;;;;25.75;11.98;;;-2.70;99.90;;;;;;5047609;28;20517;-84
2021/04/09 05:15:29;;;;;;;22.75;12.52;;;-2.60;99.90;;;;;;5045933;28;20045;-84
2021/04/09 05:17:56;;;;;;;31.55;12.90;;;-2.50;99.90;;;;;;5046355;28;20049;-84
2021/04/09 05:20:25;;;;;;;22.23;12.90;;;-2.40;99.90;;;;;;5046665;28;20057;-84
2021/04/09 05:22:52;;;;;;;26.58;13.75;;;-2.20;99.90;;;;;;5047652;28;20054;-84
2021/04/09 05:25:18;;;;;;;34.35;19.48;;;-2.00;99.90;;;;;;5047375;28;20541;-84
2021/04/09 05:27:49;;;;;;;37.72;18.60;;;-1.80;99.90;;;;;;5047405;28;20062;-84
2021/04/09 05:30:16;;;;;;;57.97;24.08;;;-1.60;99.90;;;;;;5047550;28;20066;-84
2021/04/09 05:32:42;;;;;;;49.20;25.50;;;-1.30;99.90;;;;;;5049512;28;20099;-84
2021/04/09 05:35:09;;;;;;;47.90;25.98;;;-0.90;99.90;;;;;;5048355;28;20046;-84
2021/04/09 05:37:35;;;;;;;42.47;22.67;;;-0.50;99.90;;;;;;5049795;28;20475;-84
2021/04/09 05:40:03;;;;;;;35.15;19.48;;;-0.10;99.90;;;;;;5048217;28;20144;-83
2021/04/09 05:42:29;;;;;;;33.65;16.45;;;0.00;99.90;;;;;;5045357;28;20080;-84
2021/04/09 05:44:56;;;;;;;20.08;12.98;;;0.10;99.90;;;;;;5043548;28;20111;-84
2021/04/09 05:47:24;;;;;;;28.25;11.55;;;0.30;99.90;;;;;;5049447;28;20045;-84
2021/04/09 05:49:51;;;;;;;23.95;8.07;;;0.70;99.90;;;;;;5050511;28;20051;-84
2021/04/09 05:52:18;;;;;;;21.65;7.60;;;1.20;99.90;;;;;;5051125;28;20045;-85
2021/04/09 05:54:44;;;;;;;21.02;7.35;;;1.70;99.90;;;;;;5052348;28;20046;-84
2021/04/09 05:57:10;;;;;;;24.75;7.72;;;2.20;99.90;;;;;;5052593;28;20049;-84
2021/04/09 05:59:37;;;;;;;27.92;7.78;;;2.40;99.90;;;;;;5053071;28;20045;-85
2021/04/09 06:02:04;;;;;;;21.83;7.38;;;3.40;99.90;;;;;;5053469;28;20049;-85
2021/04/09 06:04:30;;;;;;;19.40;8.88;;;4.20;99.90;;;;;;5054458;28;20048;-85
2021/04/09 06:06:56;;;;;;;27.15;8.90;;;3.90;99.90;;;;;;5051137;28;20069;-84
2021/04/09 06:09:25;;;;;;;28.48;8.68;;;3.70;99.90;;;;;;5051218;28;20050;-84
2021/04/09 06:11:51;;;;;;;45.10;9.95;;;3.00;99.90;;;;;;5051967;28;20049;-83
2021/04/09 06:14:18;;;;;;;31.05;11.20;;;2.80;99.90;;;;;;5051387;28;20068;-84
2021/04/09 06:16:44;;;;;;;45.85;11.25;;;2.80;99.90;;;;;;5051151;28;20038;-85
2021/04/09 06:19:11;;;;;;;59.63;19.75;;;2.70;99.90;;;;;;5051744;28;20040;-85
2021/04/09 06:21:38;;;;;;;37.80;14.50;;;2.70;99.90;;;;;;5050759;28;20048;-84
2021/04/09 06:24:05;;;;;;;57.92;21.73;;;2.70;99.90;;;;;;5049532;28;20168;-82
2021/04/09 06:26:33;;;;;;;81.18;35.50;;;2.60;99.90;;;;;;5037302;28;20148;-82
2021/04/09 06:29:00;;;;;;;53.80;22.42;;;2.60;99.90;;;;;;5037172;28;20095;-82
2021/04/09 06:31:26;;;;;;;56.20;21.73;;;2.60;99.90;;;;;;5039136;28;20057;-82
2021/04/09 06:33:55;;;;;;;70.32;32.00;;;2.70;99.90;;;;;;5039627;28;20045;-82
2021/04/09 06:36:21;;;;;;;48.25;22.02;;;2.80;99.90;;;;;;5041776;28;20046;-82
2021/04/09 06:38:48;;;;;;;72.55;21.45;;;2.90;99.90;;;;;;5041934;28;20045;-82
2021/04/09 06:41:14;;;;;;;79.88;20.30;;;2.90;99.90;;;;;;5040122;28;20054;-82
2021/04/09 06:43:41;;;;;;;77.00;15.07;;;3.00;99.90;;;;;;5041464;28;20054;-81
2021/04/09 06:46:08;;;;;;;66.90;16.90;;;3.10;99.90;;;;;;5039873;28;20565;-82
2021/04/09 06:48:34;;;;;;;59.67;15.93;;;3.10;99.90;;;;;;5039833;28;20050;-82
2021/04/09 06:51:01;;;;;;;60.45;16.10;;;3.30;99.90;;;;;;5040756;28;20049;-82
2021/04/09 06:53:30;;;;;;;58.50;15.90;;;3.40;99.90;;;;;;5040061;28;20133;-82
2021/04/09 06:55:57;;;;;;;53.92;14.88;;;3.30;99.90;;;;;;5039552;28;20046;-82
2021/04/09 06:58:24;;;;;;;51.13;13.85;;;3.60;99.90;;;;;;5039739;28;20080;-82
2021/04/09 07:00:52;;;;;;;40.97;13.02;;;3.80;99.90;;;;;;5039039;28;20450;-82
2021/04/09 07:03:19;;;;;;;42.92;14.23;;;3.80;99.90;;;;;;5039870;28;20050;-82
2021/04/09 07:05:49;;;;;;;49.88;14.57;;;3.80;99.90;;;;;;5040095;28;20472;-82
2021/04/09 07:08:16;;;;;;;28.73;12.55;;;3.60;99.90;;;;;;5040177;28;20057;-82
2021/04/09 07:10:42;;;;;;;38.03;12.95;;;3.80;99.90;;;;;;5039287;28;20519;-81
2021/04/09 07:13:10;;;;;;;27.60;10.02;;;4.00;99.90;;;;;;5038049;28;20073;-82
2021/04/09 07:15:45;;;;;;;30.08;11.15;;;4.10;99.90;;;;;;5037022;28;20132;-82
2021/04/09 07:18:15;;;;;;;30.08;10.18;;;4.00;99.90;;;;;;5036974;28;20462;-81
2021/04/09 07:20:44;;;;;;;46.50;12.18;;;4.20;99.90;;;;;;5035929;28;20053;-82
2021/04/09 07:23:12;;;;;;;29.13;9.70;;;4.30;99.90;;;;;;5036496;28;20053;-81
2021/04/09 07:25:44;;;;;;;19.00;9.80;;;4.20;99.90;;;;;;5036316;28;20124;-81
2021/04/09 07:28:19;;;;;;;17.33;8.05;;;4.40;99.90;;;;;;5035006;28;20049;-81
2021/04/09 07:30:56;;;;;;;16.77;7.80;;;4.50;99.90;;;;;;5017251;28;20092;-81
2021/04/09 07:33:25;;;;;;;19.63;7.68;;;4.70;99.90;;;;;;5017192;28;20048;-82
2021/04/09 07:36:10;;;;;;;14.90;6.90;;;4.50;99.90;;;;;;5016916;28;20479;-81
2021/04/09 07:38:36;;;;;;;14.13;6.53;;;5.00;99.90;;;;;;5017362;28;20053;-82
2021/04/09 07:41:05;;;;;;;19.08;6.65;;;5.40;99.90;;;;;;5016456;28;20057;-81
2021/04/09 07:43:39;;;;;;;20.85;8.15;;;5.70;99.90;;;;;;5017593;28;20512;-82
2021/04/09 07:46:08;;;;;;;22.58;6.32;;;6.00;99.90;;;;;;5017922;28;20550;-82
2021/04/09 07:48:36;;;;;;;18.73;6.35;;;6.40;99.90;;;;;;5016647;28;20045;-82
2021/04/09 07:51:07;;;;;;;19.37;5.90;;;6.70;99.90;;;;;;5016241;28;20049;-82
2021/04/09 07:53:34;;;;;;;15.95;5.90;;;7.20;99.90;;;;;;5018245;28;20050;-82
2021/04/09 07:56:15;;;;;;;14.02;5.38;;;7.00;99.90;;;;;;5035417;28;20068;-82
2021/04/09 07:58:46;;;;;;;15.38;5.95;;;7.30;99.90;;;;;;5056259;28;20099;-82
2021/04/09 08:01:22;;;;;;;15.95;5.50;;;7.70;99.90;;;;;;5037016;28;20095;-82
2021/04/09 08:03:49;;;;;;;9.13;5.25;;;7.90;99.90;;;;;;5036727;28;20073;-82
2021/04/09 08:06:21;;;;;;;10.48;6.07;;;7.80;99.90;;;;;;5037781;28;20055;-82
2021/04/09 08:08:48;;;;;;;11.93;5.65;;;8.00;99.90;;;;;;5036137;28;20121;-83
2021/04/09 08:11:27;;;;;;;6.72;4.88;;;8.00;99.90;;;;;;5036418;28;20052;-82
2021/04/09 08:14:10;;;;;;;8.20;4.95;;;8.30;99.90;;;;;;5037295;28;20045;-82
2021/04/09 08:16:39;;;;;;;7.38;4.85;;;8.20;99.20;;;;;;5037639;28;20052;-83
2021/04/09 08:19:14;;;;;;;5.55;4.78;;;8.20;98.70;;;;;;5037389;28;20049;-83
2021/04/09 08:21:56;;;;;;;6.38;4.60;;;8.40;98.00;;;;;;5036119;28;20054;-83
2021/04/09 08:24:30;;;;;;;22.02;6.18;;;8.30;95.80;;;;;;5039729;28;20076;-83
2021/04/09 08:26:59;;;;;;;8.02;5.00;;;8.50;96.90;;;;;;5042192;28;20061;-83
2021/04/09 08:29:27;;;;;;;8.95;5.15;;;8.70;95.40;;;;;;5041903;28;20506;-83
2021/04/09 08:31:54;;;;;;;8.55;5.22;;;9.10;93.20;;;;;;5038006;28;20152;-82
2021/04/09 08:34:21;;;;;;;11.88;5.07;;;9.00;92.10;;;;;;5035554;28;20041;-82
2021/04/09 08:36:50;;;;;;;8.80;4.45;;;9.10;93.70;;;;;;5035090;28;20451;-83
2021/04/09 08:39:36;;;;;;;7.72;5.10;;;8.90;92.20;;;;;;5034843;28;20052;-82
2021/04/09 08:42:03;;;;;;;6.05;4.70;;;8.70;93.70;;;;;;5033666;28;20463;-82
2021/04/09 08:44:31;;;;;;;8.63;4.55;;;9.00;92.50;;;;;;5033780;28;20049;-82
2021/04/09 08:46:59;;;;;;;5.93;4.53;;;9.10;92.30;;;;;;5033903;28;20087;-82
2021/04/09 08:49:27;;;;;;;14.23;5.57;;;9.80;91.40;;;;;;5033717;28;20065;-82
2021/04/09 08:52:00;;;;;;;4.90;4.30;;;10.20;90.30;;;;;;5033980;28;20041;-82
2021/04/09 08:54:29;;;;;;;7.60;4.53;;;10.60;84.00;;;;;;5035202;28;20073;-82
2021/04/09 08:56:57;;;;;;;6.60;4.90;;;10.60;80.50;;;;;;5033988;28;20583;-82
2021/04/09 08:59:50;;;;;;;6.22;4.32;;;10.30;82.10;;;;;;5035035;28;20046;-81
2021/04/09 09:02:24;;;;;;;6.18;4.05;;;10.10;83.10;;;;;;5034258;28;20057;-81
2021/04/09 09:08:07;;;;;;;7.93;4.35;;;10.50;82.80;;;;;;4992886;28;20387;-81
2021/04/09 09:10:33;;;;;;;7.60;5.03;;;10.60;80.70;;;;;;4992308;28;20518;-81
2021/04/09 09:13:31;;;;;;;9.65;6.10;;;10.60;78.70;;;;;;4976727;28;20046;-81
2021/04/09 09:15:59;;;;;;;9.15;5.40;;;11.00;80.90;;;;;;4992736;28;20137;-81
2021/04/09 09:18:31;;;;;;;6.78;4.68;;;11.30;77.80;;;;;;4977084;28;20061;-81
2021/04/09 09:21:03;;;;;;;7.28;4.70;;;11.40;77.90;;;;;;4976685;28;20066;-81
2021/04/09 09:24:12;;;;;;;6.30;4.07;;;11.60;74.90;;;;;;5022317;28;20084;-81
2021/04/09 09:27:09;;;;;;;6.05;4.40;;;11.70;74.30;;;;;;5025457;28;20338;-80
2021/04/09 09:29:55;;;;;;;13.52;6.13;;;11.50;72.60;;;;;;5033548;28;20127;-81
2021/04/09 09:32:32;;;;;;;5.57;4.13;;;11.50;73.70;;;;;;5033345;28;20108;-81
2021/04/09 09:34:58;;;;;;;14.85;4.45;;;11.70;71.80;;;;;;5034890;28;20120;-81
2021/04/09 09:37:27;;;;;;;6.07;4.18;;;12.00;71.00;;;;;;5034452;28;20045;-81
2021/04/09 09:40:05;;;;;;;8.73;6.20;;;12.50;71.80;;;;;;5035710;28;20045;-79
2021/04/09 09:42:34;;;;;;;15.25;9.50;;;13.10;66.40;;;;;;5035473;28;20104;-80
2021/04/09 09:45:04;;;;;;;6.40;4.35;;;13.40;65.60;;;;;;5037930;28;20049;-82
2021/04/09 09:47:32;;;;;;;6.07;4.28;;;13.10;64.50;;;;;;5038762;28;20407;-82
2021/04/09 09:50:04;;;;;;;9.80;4.20;;;13.20;64.30;;;;;;5036942;28;20053;-80
2021/04/09 09:53:06;;;;;;;8.30;4.50;;;13.30;63.80;;;;;;5037349;28;20467;-81
2021/04/09 09:55:40;;;;;;;10.73;4.50;;;13.40;64.00;;;;;;5037516;28;20065;-81
2021/04/09 09:58:39;;;;;;;10.80;4.38;;;13.20;63.40;;;;;;5036907;28;20073;-81
2021/04/09 10:01:06;;;;;;;11.40;8.52;;;12.70;64.80;;;;;;5036913;28;20236;-81
2021/04/09 10:03:37;;;;;;;6.80;4.13;;;12.70;63.50;;;;;;5037894;28;20107;-80
2021/04/09 10:06:46;;;;;;;6.18;3.88;;;12.40;63.40;;;;;;5036749;28;20053;-81
2021/04/09 10:09:12;;;;;;;18.73;4.43;;;12.60;64.40;;;;;;5036497;28;20060;-80
2021/04/09 10:11:47;;;;;;;10.15;4.50;;;12.50;64.10;;;;;;5037489;28;20132;-80
2021/04/09 10:14:13;;;;;;;5.85;4.10;;;12.70;65.80;;;;;;5037655;28;20121;-80
2021/04/09 10:16:39;;;;;;;6.80;3.75;;;13.20;64.40;;;;;;5036550;28;20080;-81
2021/04/09 10:19:07;;;;;;;4.45;3.75;;;13.90;61.90;;;;;;5040823;28;20053;-80
2021/04/09 10:21:39;;;;;;;5.97;3.72;;;14.50;59.90;;;;;;5043801;28;20079;-82
2021/04/09 10:24:16;;;;;;;5.93;3.88;;;14.70;58.50;;;;;;5041566;28;20127;-79
2021/04/09 10:26:53;;;;;;;11.77;3.88;;;15.30;58.00;;;;;;5044028;28;20557;-80
2021/04/09 10:29:35;;;;;;;8.57;4.20;;;16.20;56.30;;;;;;5043522;28;20053;-80
2021/04/09 10:32:04;;;;;;;19.05;5.63;;;16.10;57.20;;;;;;5043762;28;20073;-79
2021/04/09 10:34:35;;;;;;;8.63;3.95;;;15.60;56.60;;;;;;5043327;28;20053;-80
2021/04/09 10:37:05;;;;;;;6.78;4.30;;;16.00;56.20;;;;;;5043244;28;20068;-81
2021/04/09 10:39:32;;;;;;;15.45;4.05;;;16.90;55.60;;;;;;5041621;28;20045;-80
2021/04/09 10:42:03;;;;;;;15.55;4.40;;;17.30;53.00;;;;;;5042067;28;20045;-81
2021/04/09 10:44:34;;;;;;;22.63;4.93;;;17.40;50.70;;;;;;5041816;28;20510;-80
2021/04/09 10:47:06;;;;;;;7.40;3.90;;;17.30;51.20;;;;;;5041415;28;20049;-80
2021/04/09 10:49:37;;;;;;;8.75;4.13;;;17.20;50.90;;;;;;5042512;28;20045;-80
2021/04/09 10:52:07;;;;;;;8.25;3.83;;;17.10;51.20;;;;;;5044226;28;20127;-83
2021/04/09 10:54:36;;;;;;;5.90;3.60;;;16.50;51.40;;;;;;5058024;28;20149;-80
2021/04/09 10:57:08;;;;;;;5.93;3.78;;;16.30;52.50;;;;;;5042293;28;20045;-81
2021/04/09 10:59:37;;;;;;;7.65;4.30;;;15.90;52.50;;;;;;5043365;28;20107;-81
2021/04/09 11:02:05;;;;;;;4.57;3.92;;;16.10;52.80;;;;;;5043952;28;20076;-83
2021/04/09 11:04:34;;;;;;;8.25;5.20;;;16.00;53.30;;;;;;5046283;28;20061;-83
2021/04/09 11:07:06;;;;;;;5.82;5.07;;;15.90;53.30;;;;;;5046316;28;20498;-83
2021/04/09 11:09:45;;;;;;;8.52;5.85;;;15.90;52.80;;;;;;5051102;28;20053;-83
2021/04/09 11:12:27;;;;;;;5.93;4.68;;;15.50;54.20;;;;;;5044135;28;20113;-83
2021/04/09 11:15:07;;;;;;;6.70;4.20;;;15.40;54.50;;;;;;5046481;28;20108;-83
2021/04/09 11:17:34;;;;;;;7.20;4.93;;;15.00;55.10;;;;;;5044221;28;20045;-83
2021/04/09 11:20:18;;;;;;;8.32;4.72;;;14.60;54.60;;;;;;5043961;28;20045;-83
2021/04/09 11:22:45;;;;;;;7.35;5.10;;;14.40;55.60;;;;;;5043307;28;20511;-83
2021/04/09 11:25:12;;;;;;;7.03;5.10;;;14.60;56.90;;;;;;5045052;28;20459;-84
2021/04/09 11:27:41;;;;;;;12.75;5.35;;;14.90;56.90;;;;;;5043580;28;20072;-82
2021/04/09 11:30:22;;;;;;;6.82;5.18;;;15.20;56.10;;;;;;5043573;28;20049;-83
2021/04/09 11:32:52;;;;;;;5.95;4.90;;;15.70;54.50;;;;;;5043590;28;20046;-83
2021/04/09 11:35:35;;;;;;;8.68;4.63;;;16.40;54.30;;;;;;5042744;28;20416;-80
2021/04/09 11:38:06;;;;;;;7.03;5.00;;;15.80;53.60;;;;;;5041061;28;20507;-80
2021/04/09 11:40:34;;;;;;;22.88;5.82;;;15.50;54.50;;;;;;5044349;28;20057;-81
2021/04/09 11:43:01;;;;;;;10.73;5.15;;;15.10;55.20;;;;;;5041918;28;20498;-80
2021/04/09 11:45:41;;;;;;;8.20;5.07;;;14.80;55.10;;;;;;5043930;28;20076;-81
2021/04/09 11:48:29;;;;;;;9.88;4.68;;;14.40;56.50;;;;;;5044556;28;20076;-81
2021/04/09 11:51:20;;;;;;;5.88;4.57;;;14.30;56.90;;;;;;5042768;28;20120;-82
2021/04/09 11:54:06;;;;;;;11.55;4.32;;;14.50;57.10;;;;;;5042287;28;20049;-80
2021/04/09 11:56:48;;;;;;;6.97;4.22;;;14.90;57.50;;;;;;5041849;28;20053;-81
2021/04/09 11:59:17;;;;;;;6.18;5.25;;;15.30;56.50;;;;;;5040580;28;20045;-80
2021/04/09 12:01:45;;;;;;;8.20;4.93;;;15.40;55.60;;;;;;5039838;28;20085;-81
2021/04/09 12:04:39;;;;;;;6.47;4.65;;;15.40;54.00;;;;;;5042415;28;20049;-80
2021/04/09 12:07:16;;;;;;;8.38;4.43;;;15.20;54.40;;;;;;5041472;28;20045;-81
2021/04/09 12:09:45;;;;;;;9.55;4.50;;;15.20;55.50;;;;;;5041467;28;20609;-80
2021/04/09 12:12:13;;;;;;;6.13;4.78;;;15.10;55.50;;;;;;5041307;28;20454;-80
2021/04/09 12:14:44;;;;;;;10.43;4.78;;;15.40;55.50;;;;;;5042863;28;20411;-80
2021/04/09 12:17:13;;;;;;;8.63;5.07;;;15.50;54.40;;;;;;5044116;28;20060;-80
2021/04/09 12:19:40;;;;;;;6.53;4.53;;;15.50;54.30;;;;;;5043749;28;20052;-81
2021/04/09 12:22:07;;;;;;;7.85;4.85;;;15.60;54.80;;;;;;5044752;28;20160;-81
2021/04/09 12:24:34;;;;;;;6.45;4.60;;;15.70;54.80;;;;;;5045850;28;20069;-81
2021/04/09 12:27:06;;;;;;;6.95;4.80;;;16.00;53.50;;;;;;5045121;28;20065;-81
2021/04/09 12:29:35;;;;;;;5.35;4.82;;;15.80;53.20;;;;;;5042038;28;20057;-82
2021/04/09 12:32:02;;;;;;;5.75;4.72;;;15.80;53.80;;;;;;5039177;28;20128;-81
2021/04/09 12:34:28;;;;;;;8.05;5.63;;;15.70;54.50;;;;;;5035669;28;20045;-82
2021/04/09 12:36:55;;;;;;;7.55;4.85;;;15.60;54.70;;;;;;5037162;28;20574;-81
2021/04/09 12:39:22;;;;;;;7.57;5.32;;;15.30;53.90;;;;;;5036018;28;20056;-81
2021/04/09 12:41:50;;;;;;;8.43;5.03;;;15.10;54.40;;;;;;5035958;28;20084;-81
2021/04/09 12:44:19;;;;;;;9.65;5.45;;;15.10;54.90;;;;;;5036330;28;20049;-82
2021/04/09 12:46:50;;;;;;;7.47;4.90;;;15.60;55.70;;;;;;5036131;28;20171;-81
2021/04/09 12:49:18;;;;;;;17.65;5.88;;;16.10;56.80;;;;;;5036558;28;20057;-81
2021/04/09 12:51:46;;;;;;;8.45;4.70;;;16.50;54.70;;;;;;5037696;28;20072;-82
2021/04/09 12:54:13;;;;;;;7.97;5.00;;;16.50;53.00;;;;;;5039247;28;20068;-82
2021/04/09 12:56:40;;;;;;;8.52;5.88;;;16.60;54.10;;;;;;5036549;28;20451;-82
2021/04/09 12:59:16;;;;;;;15.20;5.70;;;16.80;53.20;;;;;;5035526;28;20071;-82
2021/04/09 13:01:43;;;;;;;8.95;5.53;;;16.40;52.90;;;;;;5038838;28;20284;-81